sensor_id;sensor_type;location;lat;lon;timestamp;P1;durP1;ratioP1;P2;durP2;ratioP2
77191;SDS011;66172;48.526;8.078;2023-06-26T00:01:29;10.02;;;5.22;;
77191;SDS011;66172;48.526;8.078;2023-06-26T00:03:57;10.15;;;5.60;;
77191;SDS011;66172;48.526;8.078;2023-06-26T00:06:24;15.43;;;5.32;;
77191;SDS011;66172;48.526;8.078;2023-06-26T00:08:51;10.32;;;5.20;;
77191;SDS011;66172;48.526;8.078;2023-06-26T00:11:19;11.03;;;5.70;;
77191;SDS011;66172;48.526;8.078;2023-06-26T00:13:45;8.65;;;4.72;;
77191;SDS011;66172;48.526;8.078;2023-06-26T00:16:11;10.38;;;5.40;;
77191;SDS011;66172;48.526;8.078;2023-06-26T00:18:37;12.00;;;5.40;;
77191;SDS011;66172;48.526;8.078;2023-06-26T00:21:03;10.77;;;5.27;;
77191;SDS011;66172;48.526;8.078;2023-06-26T00:23:29;10.55;;;5.30;;
77191;SDS011;66172;48.526;8.078;2023-06-26T00:25:56;8.93;;;5.15;;
77191;SDS011;66172;48.526;8.078;2023-06-26T00:28:22;10.68;;;5.47;;
77191;SDS011;66172;48.526;8.078;2023-06-26T00:30:48;10.63;;;5.33;;
77191;SDS011;66172;48.526;8.078;2023-06-26T00:33:14;10.43;;;4.78;;
77191;SDS011;66172;48.526;8.078;2023-06-26T00:35:41;10.00;;;5.18;;
77191;SDS011;66172;48.526;8.078;2023-06-26T00:38:06;9.23;;;4.72;;
77191;SDS011;66172;48.526;8.078;2023-06-26T00:40:32;11.47;;;5.00;;
77191;SDS011;66172;48.526;8.078;2023-06-26T00:42:58;10.50;;;5.50;;
77191;SDS011;66172;48.526;8.078;2023-06-26T00:45:24;10.13;;;5.15;;
77191;SDS011;66172;48.526;8.078;2023-06-26T00:47:50;10.27;;;5.40;;
77191;SDS011;66172;48.526;8.078;2023-06-26T00:50:16;9.70;;;5.22;;
77191;SDS011;66172;48.526;8.078;2023-06-26T00:52:43;9.65;;;5.28;;
77191;SDS011;66172;48.526;8.078;2023-06-26T00:55:09;9.55;;;5.00;;
77191;SDS011;66172;48.526;8.078;2023-06-26T00:57:35;10.70;;;5.67;;
77191;SDS011;66172;48.526;8.078;2023-06-26T01:00:01;9.82;;;5.30;;
77191;SDS011;66172;48.526;8.078;2023-06-26T01:02:29;9.57;;;5.00;;
77191;SDS011;66172;48.526;8.078;2023-06-26T01:04:59;10.30;;;5.28;;
77191;SDS011;66172;48.526;8.078;2023-06-26T01:07:29;9.43;;;4.80;;
77191;SDS011;66172;48.526;8.078;2023-06-26T01:09:57;11.17;;;5.50;;
77191;SDS011;66172;48.526;8.078;2023-06-26T01:12:24;10.35;;;5.10;;
77191;SDS011;66172;48.526;8.078;2023-06-26T01:14:50;11.07;;;4.70;;
77191;SDS011;66172;48.526;8.078;2023-06-26T01:17:16;9.85;;;4.82;;
77191;SDS011;66172;48.526;8.078;2023-06-26T01:19:42;9.63;;;4.93;;
77191;SDS011;66172;48.526;8.078;2023-06-26T01:22:29;10.65;;;5.45;;
77191;SDS011;66172;48.526;8.078;2023-06-26T01:25:03;10.38;;;4.75;;
77191;SDS011;66172;48.526;8.078;2023-06-26T01:27:30;9.63;;;5.03;;
77191;SDS011;66172;48.526;8.078;2023-06-26T01:29:58;9.77;;;5.30;;
77191;SDS011;66172;48.526;8.078;2023-06-26T01:32:28;9.50;;;5.10;;
77191;SDS011;66172;48.526;8.078;2023-06-26T01:34:55;9.65;;;5.13;;
77191;SDS011;66172;48.526;8.078;2023-06-26T01:37:22;12.52;;;5.50;;
77191;SDS011;66172;48.526;8.078;2023-06-26T01:39:48;10.07;;;5.20;;
77191;SDS011;66172;48.526;8.078;2023-06-26T01:42:14;9.27;;;5.33;;
77191;SDS011;66172;48.526;8.078;2023-06-26T01:44:42;9.50;;;5.03;;
77191;SDS011;66172;48.526;8.078;2023-06-26T01:47:11;10.05;;;5.22;;
77191;SDS011;66172;48.526;8.078;2023-06-26T01:52:38;9.93;;;5.00;;
77191;SDS011;66172;48.526;8.078;2023-06-26T01:57:42;10.43;;;5.28;;
77191;SDS011;66172;48.526;8.078;2023-06-26T02:00:11;11.00;;;5.22;;
77191;SDS011;66172;48.526;8.078;2023-06-26T02:02:39;9.40;;;5.07;;
77191;SDS011;66172;48.526;8.078;2023-06-26T02:05:07;39.13;;;5.73;;
77191;SDS011;66172;48.526;8.078;2023-06-26T02:07:33;9.73;;;5.10;;
77191;SDS011;66172;48.526;8.078;2023-06-26T02:09:59;10.32;;;5.63;;
77191;SDS011;66172;48.526;8.078;2023-06-26T02:12:24;11.68;;;5.97;;
77191;SDS011;66172;48.526;8.078;2023-06-26T02:14:50;10.97;;;4.60;;
77191;SDS011;66172;48.526;8.078;2023-06-26T02:17:16;9.88;;;5.72;;
77191;SDS011;66172;48.526;8.078;2023-06-26T02:19:42;10.10;;;5.32;;
77191;SDS011;66172;48.526;8.078;2023-06-26T02:22:16;8.85;;;4.88;;
77191;SDS011;66172;48.526;8.078;2023-06-26T02:24:42;9.40;;;4.93;;
77191;SDS011;66172;48.526;8.078;2023-06-26T02:27:09;9.57;;;5.20;;
77191;SDS011;66172;48.526;8.078;2023-06-26T02:29:35;9.10;;;5.00;;
77191;SDS011;66172;48.526;8.078;2023-06-26T02:32:01;9.43;;;5.30;;
77191;SDS011;66172;48.526;8.078;2023-06-26T02:34:27;10.63;;;5.40;;
77191;SDS011;66172;48.526;8.078;2023-06-26T02:36:54;10.25;;;5.07;;
77191;SDS011;66172;48.526;8.078;2023-06-26T02:39:20;9.27;;;4.93;;
77191;SDS011;66172;48.526;8.078;2023-06-26T02:41:46;10.70;;;5.10;;
77191;SDS011;66172;48.526;8.078;2023-06-26T02:44:12;9.32;;;5.35;;
77191;SDS011;66172;48.526;8.078;2023-06-26T02:46:39;10.32;;;4.95;;
77191;SDS011;66172;48.526;8.078;2023-06-26T02:49:06;9.57;;;5.33;;
77191;SDS011;66172;48.526;8.078;2023-06-26T02:51:33;9.88;;;5.00;;
77191;SDS011;66172;48.526;8.078;2023-06-26T02:53:59;9.10;;;5.50;;
77191;SDS011;66172;48.526;8.078;2023-06-26T02:56:26;9.50;;;4.75;;
77191;SDS011;66172;48.526;8.078;2023-06-26T02:58:55;9.75;;;5.38;;
77191;SDS011;66172;48.526;8.078;2023-06-26T03:01:21;9.77;;;5.00;;
77191;SDS011;66172;48.526;8.078;2023-06-26T03:03:47;8.48;;;4.68;;
77191;SDS011;66172;48.526;8.078;2023-06-26T03:06:14;10.13;;;5.25;;
77191;SDS011;66172;48.526;8.078;2023-06-26T03:08:40;11.52;;;5.25;;
77191;SDS011;66172;48.526;8.078;2023-06-26T03:11:07;9.15;;;4.75;;
77191;SDS011;66172;48.526;8.078;2023-06-26T03:13:34;8.97;;;4.70;;
77191;SDS011;66172;48.526;8.078;2023-06-26T03:16:00;10.90;;;5.35;;
77191;SDS011;66172;48.526;8.078;2023-06-26T03:18:27;12.52;;;5.10;;
77191;SDS011;66172;48.526;8.078;2023-06-26T03:20:53;9.95;;;4.82;;
77191;SDS011;66172;48.526;8.078;2023-06-26T03:23:21;10.10;;;4.82;;
77191;SDS011;66172;48.526;8.078;2023-06-26T03:25:47;10.67;;;4.63;;
77191;SDS011;66172;48.526;8.078;2023-06-26T03:28:13;9.02;;;4.70;;
77191;SDS011;66172;48.526;8.078;2023-06-26T03:30:39;9.90;;;5.38;;
77191;SDS011;66172;48.526;8.078;2023-06-26T03:33:05;8.80;;;4.75;;
77191;SDS011;66172;48.526;8.078;2023-06-26T03:35:31;10.13;;;5.50;;
77191;SDS011;66172;48.526;8.078;2023-06-26T03:37:57;10.00;;;5.07;;
77191;SDS011;66172;48.526;8.078;2023-06-26T03:40:24;10.18;;;5.03;;
77191;SDS011;66172;48.526;8.078;2023-06-26T03:42:50;10.88;;;5.50;;
77191;SDS011;66172;48.526;8.078;2023-06-26T03:45:15;10.27;;;5.22;;
77191;SDS011;66172;48.526;8.078;2023-06-26T03:47:41;11.83;;;5.23;;
77191;SDS011;66172;48.526;8.078;2023-06-26T03:50:07;11.82;;;5.43;;
77191;SDS011;66172;48.526;8.078;2023-06-26T03:52:33;12.20;;;5.28;;
77191;SDS011;66172;48.526;8.078;2023-06-26T03:54:59;10.20;;;5.87;;
77191;SDS011;66172;48.526;8.078;2023-06-26T03:57:26;11.13;;;5.35;;
77191;SDS011;66172;48.526;8.078;2023-06-26T03:59:52;10.20;;;5.45;;
77191;SDS011;66172;48.526;8.078;2023-06-26T04:02:18;9.60;;;4.78;;
77191;SDS011;66172;48.526;8.078;2023-06-26T04:04:44;10.15;;;5.30;;
77191;SDS011;66172;48.526;8.078;2023-06-26T04:07:10;9.83;;;4.73;;
77191;SDS011;66172;48.526;8.078;2023-06-26T04:09:36;10.27;;;5.35;;
77191;SDS011;66172;48.526;8.078;2023-06-26T04:12:02;10.57;;;4.68;;
77191;SDS011;66172;48.526;8.078;2023-06-26T04:14:28;9.00;;;4.93;;
77191;SDS011;66172;48.526;8.078;2023-06-26T04:16:54;9.50;;;5.30;;
77191;SDS011;66172;48.526;8.078;2023-06-26T04:19:19;9.48;;;5.07;;
77191;SDS011;66172;48.526;8.078;2023-06-26T04:21:45;9.68;;;4.47;;
77191;SDS011;66172;48.526;8.078;2023-06-26T04:24:11;11.00;;;5.73;;
77191;SDS011;66172;48.526;8.078;2023-06-26T04:26:37;9.27;;;5.10;;
77191;SDS011;66172;48.526;8.078;2023-06-26T04:29:06;9.85;;;4.93;;
77191;SDS011;66172;48.526;8.078;2023-06-26T04:31:32;9.75;;;5.22;;
77191;SDS011;66172;48.526;8.078;2023-06-26T04:33:58;8.88;;;4.95;;
77191;SDS011;66172;48.526;8.078;2023-06-26T04:36:25;9.30;;;5.17;;
77191;SDS011;66172;48.526;8.078;2023-06-26T04:38:54;10.90;;;5.13;;
77191;SDS011;66172;48.526;8.078;2023-06-26T04:41:21;10.32;;;5.30;;
77191;SDS011;66172;48.526;8.078;2023-06-26T04:43:47;8.95;;;4.70;;
77191;SDS011;66172;48.526;8.078;2023-06-26T04:46:13;14.83;;;5.23;;
77191;SDS011;66172;48.526;8.078;2023-06-26T04:48:39;10.32;;;4.78;;
77191;SDS011;66172;48.526;8.078;2023-06-26T04:51:05;9.23;;;5.30;;
77191;SDS011;66172;48.526;8.078;2023-06-26T04:53:30;10.07;;;5.35;;
77191;SDS011;66172;48.526;8.078;2023-06-26T04:55:56;10.17;;;5.40;;
77191;SDS011;66172;48.526;8.078;2023-06-26T04:58:22;9.98;;;5.38;;
77191;SDS011;66172;48.526;8.078;2023-06-26T05:00:48;13.43;;;5.40;;
77191;SDS011;66172;48.526;8.078;2023-06-26T05:03:16;8.60;;;4.83;;
77191;SDS011;66172;48.526;8.078;2023-06-26T05:05:43;11.10;;;4.65;;
77191;SDS011;66172;48.526;8.078;2023-06-26T05:10:46;10.50;;;5.55;;
77191;SDS011;66172;48.526;8.078;2023-06-26T05:13:12;9.18;;;4.93;;
77191;SDS011;66172;48.526;8.078;2023-06-26T05:15:41;9.57;;;5.00;;
77191;SDS011;66172;48.526;8.078;2023-06-26T05:18:07;8.68;;;5.10;;
77191;SDS011;66172;48.526;8.078;2023-06-26T05:20:34;10.95;;;4.88;;
77191;SDS011;66172;48.526;8.078;2023-06-26T05:23:04;8.13;;;4.85;;
77191;SDS011;66172;48.526;8.078;2023-06-26T05:25:30;8.15;;;4.93;;
77191;SDS011;66172;48.526;8.078;2023-06-26T05:27:57;8.13;;;4.83;;
77191;SDS011;66172;48.526;8.078;2023-06-26T05:32:52;11.15;;;5.63;;
77191;SDS011;66172;48.526;8.078;2023-06-26T05:35:20;10.25;;;5.68;;
77191;SDS011;66172;48.526;8.078;2023-06-26T05:37:50;10.27;;;5.40;;
77191;SDS011;66172;48.526;8.078;2023-06-26T05:40:17;9.83;;;5.50;;
77191;SDS011;66172;48.526;8.078;2023-06-26T05:42:44;9.77;;;5.85;;
77191;SDS011;66172;48.526;8.078;2023-06-26T05:45:10;8.95;;;5.75;;
77191;SDS011;66172;48.526;8.078;2023-06-26T05:47:36;10.00;;;5.40;;
77191;SDS011;66172;48.526;8.078;2023-06-26T05:50:03;10.00;;;6.03;;
77191;SDS011;66172;48.526;8.078;2023-06-26T05:52:29;8.83;;;5.40;;
77191;SDS011;66172;48.526;8.078;2023-06-26T05:54:56;10.02;;;5.63;;
77191;SDS011;66172;48.526;8.078;2023-06-26T05:57:28;8.48;;;5.85;;
77191;SDS011;66172;48.526;8.078;2023-06-26T05:59:55;9.38;;;5.78;;
77191;SDS011;66172;48.526;8.078;2023-06-26T06:02:22;9.10;;;5.63;;
77191;SDS011;66172;48.526;8.078;2023-06-26T06:04:48;8.03;;;5.37;;
77191;SDS011;66172;48.526;8.078;2023-06-26T06:07:14;8.32;;;5.32;;
77191;SDS011;66172;48.526;8.078;2023-06-26T06:09:40;11.07;;;5.65;;
77191;SDS011;66172;48.526;8.078;2023-06-26T06:12:07;10.45;;;5.85;;
77191;SDS011;66172;48.526;8.078;2023-06-26T06:14:33;9.88;;;5.40;;
77191;SDS011;66172;48.526;8.078;2023-06-26T06:17:00;9.27;;;6.37;;
77191;SDS011;66172;48.526;8.078;2023-06-26T06:19:26;10.50;;;5.72;;
77191;SDS011;66172;48.526;8.078;2023-06-26T06:21:52;8.25;;;5.85;;
77191;SDS011;66172;48.526;8.078;2023-06-26T06:24:19;10.13;;;6.18;;
77191;SDS011;66172;48.526;8.078;2023-06-26T06:26:45;15.27;;;6.10;;
77191;SDS011;66172;48.526;8.078;2023-06-26T06:29:11;8.93;;;5.70;;
77191;SDS011;66172;48.526;8.078;2023-06-26T06:31:37;8.30;;;5.88;;
77191;SDS011;66172;48.526;8.078;2023-06-26T06:34:03;8.55;;;5.55;;
77191;SDS011;66172;48.526;8.078;2023-06-26T06:36:29;8.67;;;6.03;;
77191;SDS011;66172;48.526;8.078;2023-06-26T06:38:55;9.82;;;6.20;;
77191;SDS011;66172;48.526;8.078;2023-06-26T06:41:21;11.68;;;5.80;;
77191;SDS011;66172;48.526;8.078;2023-06-26T06:43:47;8.88;;;5.68;;
77191;SDS011;66172;48.526;8.078;2023-06-26T06:46:12;10.07;;;6.00;;
77191;SDS011;66172;48.526;8.078;2023-06-26T06:48:38;7.88;;;6.00;;
77191;SDS011;66172;48.526;8.078;2023-06-26T06:51:04;9.57;;;6.00;;
77191;SDS011;66172;48.526;8.078;2023-06-26T06:53:31;9.00;;;5.97;;
77191;SDS011;66172;48.526;8.078;2023-06-26T06:55:57;9.18;;;5.85;;
77191;SDS011;66172;48.526;8.078;2023-06-26T06:58:23;8.80;;;6.22;;
77191;SDS011;66172;48.526;8.078;2023-06-26T07:00:49;8.88;;;6.20;;
77191;SDS011;66172;48.526;8.078;2023-06-26T07:03:16;8.97;;;5.87;;
77191;SDS011;66172;48.526;8.078;2023-06-26T07:05:42;7.80;;;6.20;;
77191;SDS011;66172;48.526;8.078;2023-06-26T07:08:08;11.57;;;6.28;;
77191;SDS011;66172;48.526;8.078;2023-06-26T07:10:34;8.40;;;6.60;;
77191;SDS011;66172;48.526;8.078;2023-06-26T07:13:00;8.13;;;6.60;;
77191;SDS011;66172;48.526;8.078;2023-06-26T07:15:26;8.55;;;6.68;;
77191;SDS011;66172;48.526;8.078;2023-06-26T07:17:52;8.73;;;6.68;;
77191;SDS011;66172;48.526;8.078;2023-06-26T07:20:18;10.15;;;7.30;;
77191;SDS011;66172;48.526;8.078;2023-06-26T07:22:44;8.60;;;7.03;;
77191;SDS011;66172;48.526;8.078;2023-06-26T07:25:10;9.93;;;7.18;;
77191;SDS011;66172;48.526;8.078;2023-06-26T07:27:37;12.93;;;7.35;;
77191;SDS011;66172;48.526;8.078;2023-06-26T07:30:03;11.35;;;7.70;;
77191;SDS011;66172;48.526;8.078;2023-06-26T07:32:29;8.13;;;7.33;;
77191;SDS011;66172;48.526;8.078;2023-06-26T07:34:55;9.70;;;7.30;;
77191;SDS011;66172;48.526;8.078;2023-06-26T07:37:21;10.75;;;7.50;;
77191;SDS011;66172;48.526;8.078;2023-06-26T07:39:48;13.52;;;7.70;;
77191;SDS011;66172;48.526;8.078;2023-06-26T07:42:14;9.20;;;8.20;;
77191;SDS011;66172;48.526;8.078;2023-06-26T07:44:43;9.07;;;7.97;;
77191;SDS011;66172;48.526;8.078;2023-06-26T07:47:09;9.18;;;7.90;;
77191;SDS011;66172;48.526;8.078;2023-06-26T07:49:35;9.85;;;8.10;;
77191;SDS011;66172;48.526;8.078;2023-06-26T07:52:02;8.80;;;7.70;;
77191;SDS011;66172;48.526;8.078;2023-06-26T07:54:29;9.33;;;7.70;;
77191;SDS011;66172;48.526;8.078;2023-06-26T07:56:59;10.93;;;7.38;;
77191;SDS011;66172;48.526;8.078;2023-06-26T07:59:27;10.15;;;7.13;;
77191;SDS011;66172;48.526;8.078;2023-06-26T08:01:55;8.40;;;7.10;;
77191;SDS011;66172;48.526;8.078;2023-06-26T08:04:23;7.38;;;6.57;;
77191;SDS011;66172;48.526;8.078;2023-06-26T08:06:51;10.53;;;6.80;;
77191;SDS011;66172;48.526;8.078;2023-06-26T08:09:18;7.10;;;6.25;;
77191;SDS011;66172;48.526;8.078;2023-06-26T08:11:45;8.50;;;6.38;;
77191;SDS011;66172;48.526;8.078;2023-06-26T08:14:12;7.97;;;6.60;;
77191;SDS011;66172;48.526;8.078;2023-06-26T08:16:38;8.82;;;6.50;;
77191;SDS011;66172;48.526;8.078;2023-06-26T08:19:04;8.17;;;6.57;;
77191;SDS011;66172;48.526;8.078;2023-06-26T08:21:30;11.18;;;6.55;;
77191;SDS011;66172;48.526;8.078;2023-06-26T08:23:56;7.53;;;6.20;;
77191;SDS011;66172;48.526;8.078;2023-06-26T08:26:22;7.30;;;6.23;;
77191;SDS011;66172;48.526;8.078;2023-06-26T08:28:48;7.75;;;6.28;;
77191;SDS011;66172;48.526;8.078;2023-06-26T08:31:14;8.85;;;6.57;;
77191;SDS011;66172;48.526;8.078;2023-06-26T08:33:40;8.63;;;6.10;;
77191;SDS011;66172;48.526;8.078;2023-06-26T08:36:06;9.23;;;6.37;;
77191;SDS011;66172;48.526;8.078;2023-06-26T08:38:32;10.70;;;6.90;;
77191;SDS011;66172;48.526;8.078;2023-06-26T08:40:58;9.40;;;6.43;;
77191;SDS011;66172;48.526;8.078;2023-06-26T08:43:25;8.25;;;6.85;;
77191;SDS011;66172;48.526;8.078;2023-06-26T08:45:52;10.30;;;6.63;;
77191;SDS011;66172;48.526;8.078;2023-06-26T08:48:18;9.35;;;6.55;;
77191;SDS011;66172;48.526;8.078;2023-06-26T08:50:49;11.35;;;6.57;;
77191;SDS011;66172;48.526;8.078;2023-06-26T08:56:05;8.63;;;7.10;;
77191;SDS011;66172;48.526;8.078;2023-06-26T08:58:32;13.33;;;6.90;;
77191;SDS011;66172;48.526;8.078;2023-06-26T09:01:02;9.13;;;6.45;;
77191;SDS011;66172;48.526;8.078;2023-06-26T09:03:28;8.95;;;6.32;;
77191;SDS011;66172;48.526;8.078;2023-06-26T09:05:54;9.48;;;6.00;;
77191;SDS011;66172;48.526;8.078;2023-06-26T09:08:20;9.35;;;6.53;;
77191;SDS011;66172;48.526;8.078;2023-06-26T09:10:46;10.60;;;6.93;;
77191;SDS011;66172;48.526;8.078;2023-06-26T09:13:12;9.25;;;7.07;;
77191;SDS011;66172;48.526;8.078;2023-06-26T09:15:38;9.40;;;6.88;;
77191;SDS011;66172;48.526;8.078;2023-06-26T09:18:08;10.15;;;6.60;;
77191;SDS011;66172;48.526;8.078;2023-06-26T09:20:34;11.33;;;6.70;;
77191;SDS011;66172;48.526;8.078;2023-06-26T09:23:00;9.88;;;7.18;;
77191;SDS011;66172;48.526;8.078;2023-06-26T09:25:27;13.52;;;6.68;;
77191;SDS011;66172;48.526;8.078;2023-06-26T09:27:53;9.38;;;7.00;;
77191;SDS011;66172;48.526;8.078;2023-06-26T09:30:19;10.25;;;6.30;;
77191;SDS011;66172;48.526;8.078;2023-06-26T09:32:45;10.20;;;7.00;;
77191;SDS011;66172;48.526;8.078;2023-06-26T09:35:11;9.95;;;6.50;;
77191;SDS011;66172;48.526;8.078;2023-06-26T09:37:37;12.80;;;6.60;;
77191;SDS011;66172;48.526;8.078;2023-06-26T09:40:03;9.18;;;6.80;;
77191;SDS011;66172;48.526;8.078;2023-06-26T09:42:30;9.97;;;6.23;;
77191;SDS011;66172;48.526;8.078;2023-06-26T09:44:56;10.30;;;6.70;;
77191;SDS011;66172;48.526;8.078;2023-06-26T09:47:23;7.57;;;6.10;;
77191;SDS011;66172;48.526;8.078;2023-06-26T09:49:49;10.70;;;6.20;;
77191;SDS011;66172;48.526;8.078;2023-06-26T09:52:16;9.50;;;6.70;;
77191;SDS011;66172;48.526;8.078;2023-06-26T09:54:43;10.07;;;6.30;;
77191;SDS011;66172;48.526;8.078;2023-06-26T09:57:12;8.55;;;5.78;;
77191;SDS011;66172;48.526;8.078;2023-06-26T09:59:41;10.30;;;5.82;;
77191;SDS011;66172;48.526;8.078;2023-06-26T10:02:08;9.25;;;5.80;;
77191;SDS011;66172;48.526;8.078;2023-06-26T10:04:35;8.63;;;6.07;;
77191;SDS011;66172;48.526;8.078;2023-06-26T10:07:01;10.27;;;5.97;;
77191;SDS011;66172;48.526;8.078;2023-06-26T10:09:30;9.80;;;5.75;;
77191;SDS011;66172;48.526;8.078;2023-06-26T10:11:57;10.55;;;5.43;;
77191;SDS011;66172;48.526;8.078;2023-06-26T10:14:27;8.18;;;5.47;;
77191;SDS011;66172;48.526;8.078;2023-06-26T10:16:56;8.77;;;5.00;;
77191;SDS011;66172;48.526;8.078;2023-06-26T10:19:24;8.73;;;5.40;;
77191;SDS011;66172;48.526;8.078;2023-06-26T10:21:53;8.18;;;5.13;;
77191;SDS011;66172;48.526;8.078;2023-06-26T10:24:20;7.55;;;5.53;;
77191;SDS011;66172;48.526;8.078;2023-06-26T10:26:49;9.10;;;5.30;;
77191;SDS011;66172;48.526;8.078;2023-06-26T10:29:18;7.70;;;5.05;;
77191;SDS011;66172;48.526;8.078;2023-06-26T10:31:48;8.20;;;5.13;;
77191;SDS011;66172;48.526;8.078;2023-06-26T10:34:17;11.57;;;5.00;;
77191;SDS011;66172;48.526;8.078;2023-06-26T10:36:43;6.78;;;4.93;;
77191;SDS011;66172;48.526;8.078;2023-06-26T10:39:09;8.82;;;5.15;;
77191;SDS011;66172;48.526;8.078;2023-06-26T10:41:36;9.80;;;4.60;;
77191;SDS011;66172;48.526;8.078;2023-06-26T10:44:06;7.30;;;4.78;;
77191;SDS011;66172;48.526;8.078;2023-06-26T10:46:37;7.22;;;4.85;;
77191;SDS011;66172;48.526;8.078;2023-06-26T10:49:14;8.45;;;4.78;;
77191;SDS011;66172;48.526;8.078;2023-06-26T10:51:45;11.30;;;5.00;;
77191;SDS011;66172;48.526;8.078;2023-06-26T10:54:17;7.43;;;4.73;;
77191;SDS011;66172;48.526;8.078;2023-06-26T10:56:45;6.90;;;4.55;;
77191;SDS011;66172;48.526;8.078;2023-06-26T10:59:13;9.88;;;4.75;;
77191;SDS011;66172;48.526;8.078;2023-06-26T11:01:45;6.82;;;4.78;;
77191;SDS011;66172;48.526;8.078;2023-06-26T11:04:13;8.38;;;4.93;;
77191;SDS011;66172;48.526;8.078;2023-06-26T11:06:43;7.47;;;4.43;;
77191;SDS011;66172;48.526;8.078;2023-06-26T11:09:15;8.40;;;4.45;;
77191;SDS011;66172;48.526;8.078;2023-06-26T11:14:18;8.10;;;4.53;;
77191;SDS011;66172;48.526;8.078;2023-06-26T11:16:48;8.02;;;4.75;;
77191;SDS011;66172;48.526;8.078;2023-06-26T11:19:16;7.73;;;4.83;;
77191;SDS011;66172;48.526;8.078;2023-06-26T11:21:42;10.60;;;4.50;;
77191;SDS011;66172;48.526;8.078;2023-06-26T11:24:09;8.18;;;4.60;;
77191;SDS011;66172;48.526;8.078;2023-06-26T11:26:43;8.45;;;4.47;;
77191;SDS011;66172;48.526;8.078;2023-06-26T11:29:10;7.47;;;4.13;;
77191;SDS011;66172;48.526;8.078;2023-06-26T11:31:38;8.77;;;4.40;;
77191;SDS011;66172;48.526;8.078;2023-06-26T11:34:06;7.57;;;4.22;;
77191;SDS011;66172;48.526;8.078;2023-06-26T11:36:34;9.55;;;4.57;;
77191;SDS011;66172;48.526;8.078;2023-06-26T11:39:03;8.48;;;4.55;;
77191;SDS011;66172;48.526;8.078;2023-06-26T11:41:34;7.82;;;4.50;;
77191;SDS011;66172;48.526;8.078;2023-06-26T11:44:04;8.60;;;4.37;;
77191;SDS011;66172;48.526;8.078;2023-06-26T11:46:37;6.93;;;4.30;;
77191;SDS011;66172;48.526;8.078;2023-06-26T11:49:04;7.57;;;4.35;;
77191;SDS011;66172;48.526;8.078;2023-06-26T11:51:30;9.07;;;4.40;;
77191;SDS011;66172;48.526;8.078;2023-06-26T11:53:56;8.15;;;4.20;;
77191;SDS011;66172;48.526;8.078;2023-06-26T11:56:22;7.17;;;3.93;;
77191;SDS011;66172;48.526;8.078;2023-06-26T11:58:58;8.63;;;4.05;;
77191;SDS011;66172;48.526;8.078;2023-06-26T12:01:26;8.68;;;4.00;;
77191;SDS011;66172;48.526;8.078;2023-06-26T12:03:59;7.13;;;3.80;;
77191;SDS011;66172;48.526;8.078;2023-06-26T12:06:27;7.63;;;4.00;;
77191;SDS011;66172;48.526;8.078;2023-06-26T12:08:54;6.18;;;3.90;;
77191;SDS011;66172;48.526;8.078;2023-06-26T12:11:21;7.22;;;4.00;;
77191;SDS011;66172;48.526;8.078;2023-06-26T12:13:48;6.82;;;3.97;;
77191;SDS011;66172;48.526;8.078;2023-06-26T12:16:14;7.15;;;3.85;;
77191;SDS011;66172;48.526;8.078;2023-06-26T12:18:40;7.13;;;4.07;;
77191;SDS011;66172;48.526;8.078;2023-06-26T12:21:06;7.72;;;3.55;;
77191;SDS011;66172;48.526;8.078;2023-06-26T12:23:33;6.13;;;3.63;;
77191;SDS011;66172;48.526;8.078;2023-06-26T12:26:15;8.05;;;3.67;;
77191;SDS011;66172;48.526;8.078;2023-06-26T12:28:44;6.07;;;3.80;;
77191;SDS011;66172;48.526;8.078;2023-06-26T12:31:14;9.43;;;4.00;;
77191;SDS011;66172;48.526;8.078;2023-06-26T12:33:44;6.85;;;3.80;;
77191;SDS011;66172;48.526;8.078;2023-06-26T12:36:10;7.63;;;3.67;;
77191;SDS011;66172;48.526;8.078;2023-06-26T12:38:42;7.43;;;4.05;;
77191;SDS011;66172;48.526;8.078;2023-06-26T12:41:14;6.10;;;3.63;;
77191;SDS011;66172;48.526;8.078;2023-06-26T12:43:41;7.50;;;3.67;;
77191;SDS011;66172;48.526;8.078;2023-06-26T12:46:07;8.48;;;3.47;;
77191;SDS011;66172;48.526;8.078;2023-06-26T12:48:40;6.75;;;3.67;;
77191;SDS011;66172;48.526;8.078;2023-06-26T12:51:15;7.85;;;3.75;;
77191;SDS011;66172;48.526;8.078;2023-06-26T12:53:42;8.67;;;4.30;;
77191;SDS011;66172;48.526;8.078;2023-06-26T12:56:08;7.32;;;3.70;;
77191;SDS011;66172;48.526;8.078;2023-06-26T12:58:35;8.80;;;3.80;;
77191;SDS011;66172;48.526;8.078;2023-06-26T13:01:03;6.75;;;3.83;;
77191;SDS011;66172;48.526;8.078;2023-06-26T13:03:30;7.75;;;3.70;;
77191;SDS011;66172;48.526;8.078;2023-06-26T13:05:57;6.90;;;3.97;;
77191;SDS011;66172;48.526;8.078;2023-06-26T13:08:23;7.15;;;3.95;;
77191;SDS011;66172;48.526;8.078;2023-06-26T13:10:49;8.75;;;3.70;;
77191;SDS011;66172;48.526;8.078;2023-06-26T13:13:15;8.90;;;3.40;;
77191;SDS011;66172;48.526;8.078;2023-06-26T13:15:40;5.80;;;3.30;;
77191;SDS011;66172;48.526;8.078;2023-06-26T13:18:06;6.82;;;3.63;;
77191;SDS011;66172;48.526;8.078;2023-06-26T13:20:32;7.80;;;3.58;;
77191;SDS011;66172;48.526;8.078;2023-06-26T13:22:58;6.07;;;3.60;;
77191;SDS011;66172;48.526;8.078;2023-06-26T13:25:24;7.53;;;3.75;;
77191;SDS011;66172;48.526;8.078;2023-06-26T13:27:50;6.25;;;3.33;;
77191;SDS011;66172;48.526;8.078;2023-06-26T13:30:16;7.85;;;3.72;;
77191;SDS011;66172;48.526;8.078;2023-06-26T13:32:42;7.97;;;3.23;;
77191;SDS011;66172;48.526;8.078;2023-06-26T13:35:09;6.13;;;3.05;;
77191;SDS011;66172;48.526;8.078;2023-06-26T13:37:35;8.77;;;3.50;;
77191;SDS011;66172;48.526;8.078;2023-06-26T13:40:02;6.53;;;3.20;;
77191;SDS011;66172;48.526;8.078;2023-06-26T13:42:28;6.88;;;3.30;;
77191;SDS011;66172;48.526;8.078;2023-06-26T13:44:55;6.37;;;3.27;;
77191;SDS011;66172;48.526;8.078;2023-06-26T13:47:20;6.72;;;3.40;;
77191;SDS011;66172;48.526;8.078;2023-06-26T13:49:47;8.15;;;3.58;;
77191;SDS011;66172;48.526;8.078;2023-06-26T13:52:12;9.75;;;3.72;;
77191;SDS011;66172;48.526;8.078;2023-06-26T13:54:38;9.77;;;3.70;;
77191;SDS011;66172;48.526;8.078;2023-06-26T13:57:06;7.05;;;3.63;;
77191;SDS011;66172;48.526;8.078;2023-06-26T13:59:32;7.72;;;3.78;;
77191;SDS011;66172;48.526;8.078;2023-06-26T14:01:58;7.13;;;3.70;;
77191;SDS011;66172;48.526;8.078;2023-06-26T14:04:25;8.82;;;3.78;;
77191;SDS011;66172;48.526;8.078;2023-06-26T14:06:52;7.40;;;3.33;;
77191;SDS011;66172;48.526;8.078;2023-06-26T14:09:18;7.78;;;3.70;;
77191;SDS011;66172;48.526;8.078;2023-06-26T14:11:44;7.18;;;3.80;;
77191;SDS011;66172;48.526;8.078;2023-06-26T14:14:10;8.07;;;4.00;;
77191;SDS011;66172;48.526;8.078;2023-06-26T14:16:36;7.63;;;4.30;;
77191;SDS011;66172;48.526;8.078;2023-06-26T14:19:02;9.63;;;4.53;;
77191;SDS011;66172;48.526;8.078;2023-06-26T14:21:28;8.90;;;4.00;;
77191;SDS011;66172;48.526;8.078;2023-06-26T14:23:56;12.35;;;4.43;;
77191;SDS011;66172;48.526;8.078;2023-06-26T14:26:22;8.10;;;4.47;;
77191;SDS011;66172;48.526;8.078;2023-06-26T14:28:48;7.60;;;4.40;;
77191;SDS011;66172;48.526;8.078;2023-06-26T14:31:14;8.18;;;4.45;;
77191;SDS011;66172;48.526;8.078;2023-06-26T14:33:40;8.50;;;4.30;;
77191;SDS011;66172;48.526;8.078;2023-06-26T14:36:06;10.20;;;4.83;;
77191;SDS011;66172;48.526;8.078;2023-06-26T14:38:32;10.00;;;4.97;;
77191;SDS011;66172;48.526;8.078;2023-06-26T14:40:58;11.10;;;4.90;;
77191;SDS011;66172;48.526;8.078;2023-06-26T14:43:24;9.77;;;5.30;;
77191;SDS011;66172;48.526;8.078;2023-06-26T14:45:50;10.37;;;4.90;;
77191;SDS011;66172;48.526;8.078;2023-06-26T14:48:16;9.95;;;4.93;;
77191;SDS011;66172;48.526;8.078;2023-06-26T14:50:41;8.45;;;4.90;;
77191;SDS011;66172;48.526;8.078;2023-06-26T14:53:07;8.60;;;5.00;;
77191;SDS011;66172;48.526;8.078;2023-06-26T14:55:33;9.47;;;5.17;;
77191;SDS011;66172;48.526;8.078;2023-06-26T14:57:59;15.02;;;5.80;;